Time;durP1;ratioP1;P1;durP2;ratioP2;P2;SDS_P1;SDS_P2;PMS_P1;PMS_P2;Temp;Humidity;BMP_temperature;BMP_pressure;BME280_temperature;BME280_humidity;BME280_pressure;Samples;Min_cycle;Max_cycle;Signal;HPM_P1;HPM_P2
2022/02/10 00:04:42;;;;;;;;;;;2.50;99.40;;;;;;5021937;28;20212;-67
2022/02/10 00:15:38;;;;;;;;;;;2.30;99.30;;;;;;5036053;28;20039;-68
2022/02/10 00:36:40;;;;;;;;;;;2.20;99.50;;;;;;5043145;28;19924;-68
2022/02/10 00:41:50;;;;;;;;;;;2.20;99.60;;;;;;5061578;28;19916;-67
2022/02/10 00:44:15;;;;;;;;;;;2.20;99.70;;;;;;5061084;28;19908;-67
2022/02/10 00:46:41;;;;;;;;;;;2.20;99.70;;;;;;5041415;28;19909;-67
2022/02/10 00:49:08;;;;;;;;;;;2.10;99.90;;;;;;5040281;28;19909;-66
2022/02/10 00:51:34;;;;;;;;;;;2.10;99.80;;;;;;5023837;28;20159;-67
2022/02/10 00:54:00;;;;;;;;;;;2.10;99.90;;;;;;5040979;28;19974;-67
2022/02/10 00:56:26;;;;;;;;;;;2.10;99.90;;;;;;5040345;28;19980;-67
2022/02/10 00:59:20;;;;;;;;;;;2.20;99.90;;;;;;5056814;28;19909;-67
2022/02/10 01:31:16;;;;;;;;;;;1.80;99.20;;;;;;5020209;28;19977;-67
2022/02/10 01:33:43;;;;;;;;;;;1.80;99.50;;;;;;5021329;28;20104;-68
2022/02/10 01:36:09;;;;;;;;;;;1.70;99.60;;;;;;5021305;28;19963;-68
2022/02/10 01:38:35;;;;;;;;;;;1.70;99.70;;;;;;5036171;28;19944;-68
2022/02/10 01:57:51;;;;;;;;;;;1.80;99.80;;;;;;5053895;28;20223;-68
2022/02/10 02:03:43;;;;;;;;;;;1.80;99.70;;;;;;5044729;28;19955;-67
2022/02/10 02:05:55;;;;;;;;;;;1.80;99.70;;;;;;5038223;28;20190;-68
2022/02/10 02:08:25;;;;;;;;;;;1.80;99.80;;;;;;5043111;28;20092;-68
2022/02/10 02:10:51;;;;;;;;;;;1.80;99.90;;;;;;5050077;28;19988;-68
2022/02/10 02:13:17;;;;;;;;;;;1.80;99.80;;;;;;5023570;28;20046;-68
2022/02/10 02:15:43;;;;;;;;;;;1.80;99.70;;;;;;5023407;28;20193;-68
2022/02/10 02:18:08;;;;;;;;;;;1.80;99.60;;;;;;5044154;28;19928;-68
2022/02/10 02:20:34;;;;;;;;;;;1.70;99.30;;;;;;5024261;28;19953;-66
2022/02/10 02:23:00;;;;;;;;;;;1.70;99.40;;;;;;5024404;28;19913;-67
2022/02/10 02:25:25;;;;;;;;;;;1.70;99.50;;;;;;5023131;28;19935;-68
2022/02/10 02:27:54;;;;;;;;;;;1.70;99.60;;;;;;5006646;28;19910;-67
2022/02/10 02:30:32;;;;;;;;;;;1.70;99.60;;;;;;5006625;28;19917;-67
2022/02/10 03:08:26;;;;;;;;;;;1.60;99.60;;;;;;5043354;28;19980;-68
2022/02/10 03:11:07;;;;;;;;;;;1.60;99.60;;;;;;5047170;28;20188;-68
2022/02/10 03:13:38;;;;;;;;;;;1.50;99.50;;;;;;5042265;28;19917;-67
2022/02/10 03:16:37;;;;;;;;;;;1.50;99.50;;;;;;5043350;28;20054;-68
2022/02/10 04:00:25;;;;;;;;;;;1.60;99.80;;;;;;5047301;28;19931;-67
2022/02/10 04:09:08;;;;;;;;;;;1.50;99.90;;;;;;5062184;28;19912;-69
2022/02/10 04:13:21;;;;;;;;;;;1.50;99.90;;;;;;5062220;28;19976;-69
2022/02/10 04:16:09;;;;;;;;;;;1.50;99.90;;;;;;5062129;28;19913;-68
2022/02/10 04:23:47;;;;;;;;;;;1.50;99.90;;;;;;5061545;28;19909;-69
2022/02/10 04:56:42;;;;;;;;;;;1.40;99.80;;;;;;5045308;28;19940;-67
2022/02/10 05:21:55;;;;;;;;;;;1.20;99.90;;;;;;5060093;28;19909;-68
2022/02/10 05:38:04;;;;;;;;;;;1.40;99.50;;;;;;5064813;28;19919;-68
2022/02/10 05:45:49;;;;;;;;;;;1.30;99.90;;;;;;5046957;28;19955;-67
2022/02/10 05:53:59;;;;;;;;;;;1.30;99.90;;;;;;5065115;28;20015;-68
2022/02/10 05:59:16;;;;;;;;;;;1.20;99.90;;;;;;5048021;28;19976;-67
2022/02/10 07:06:26;;;;;;;;;;;1.40;99.50;;;;;;5043190;28;19913;-67
2022/02/10 07:47:56;;;;;;;;;;;2.10;98.00;;;;;;5000733;28;19948;-66
2022/02/10 07:53:05;;;;;;;;;;;2.20;97.90;;;;;;5062103;28;19909;-67
2022/02/10 10:01:16;;;;;;;;;;;7.20;85.20;;;;;;5060553;28;19909;-69
2022/02/10 10:04:09;;;;;;;;;;;7.20;85.30;;;;;;5042825;28;19909;-68
2022/02/10 10:06:53;;;;;;;;;;;7.10;85.50;;;;;;5046361;28;20255;-68
2022/02/10 10:09:41;;;;;;;;;;;7.30;85.30;;;;;;5045470;28;19909;-68
2022/02/10 10:15:08;;;;;;;;;;;7.80;83.90;;;;;;5036308;28;20146;-69
2022/02/10 10:20:50;;;;;;;;;;;8.30;82.30;;;;;;5023732;28;19943;-69
2022/02/10 10:23:39;;;;;;;;;;;8.60;80.40;;;;;;5042755;28;19909;-69
2022/02/10 10:49:51;;;;;;;;;;;9.50;77.80;;;;;;5048743;28;19919;-68
2022/02/10 10:52:48;;;;;;;;;;;9.40;77.50;;;;;;5063599;28;19912;-68
2022/02/10 10:55:33;;;;;;;;;;;9.50;77.60;;;;;;5050766;28;19919;-68
2022/02/10 10:57:59;;;;;;;;;;;9.40;77.20;;;;;;5048440;28;20188;-69
2022/02/10 11:45:49;;;;;;;;;;;9.40;79.50;;;;;;5061486;28;19920;-69
2022/02/10 14:14:27;;;;;;;;;;;8.70;85.90;;;;;;5064077;28;19928;-67
2022/02/10 14:16:59;;;;;;;;;;;8.60;86.70;;;;;;5063959;28;19917;-67
2022/02/10 14:19:38;;;;;;;;;;;8.60;87.10;;;;;;5063801;28;19924;-68
2022/02/10 14:22:11;;;;;;;;;;;8.50;87.70;;;;;;5064075;28;20036;-68
2022/02/10 14:27:21;;;;;;;;;;;8.50;88.20;;;;;;5048579;28;20244;-68
2022/02/10 14:29:47;;;;;;;;;;;8.50;88.30;;;;;;5063876;28;19936;-67
2022/02/10 14:32:15;;;;;;;;;;;8.50;88.10;;;;;;5062882;28;20226;-68
2022/02/10 14:34:41;;;;;;;;;;;8.40;88.20;;;;;;5064162;28;19948;-69
2022/02/10 16:17:08;;;;;;;;;;;7.70;88.60;;;;;;5052774;28;20238;-69
2022/02/10 16:19:34;;;;;;;;;;;7.70;88.70;;;;;;5043385;28;19909;-69
2022/02/10 16:24:30;;;;;;;;;;;7.70;88.40;;;;;;5027549;28;19916;-69
2022/02/10 16:26:59;;;;;;;;;;;7.70;89.20;;;;;;5061702;28;20225;-69
2022/02/10 16:29:28;;;;;;;;;;;7.70;88.40;;;;;;5044032;28;19909;-69
2022/02/10 16:31:54;;;;;;;;;;;7.70;88.50;;;;;;5061244;28;20207;-68
2022/02/10 16:34:20;;;;;;;;;;;7.70;88.70;;;;;;5042349;28;19951;-69
2022/02/10 16:36:46;;;;;;;;;;;7.70;88.70;;;;;;5062047;28;19913;-69
2022/02/10 16:39:16;;;;;;;;;;;7.70;88.80;;;;;;5044811;28;20007;-68
2022/02/10 16:41:45;;;;;;;;;;;7.70;88.30;;;;;;5027820;28;19909;-68
2022/02/10 16:44:11;;;;;;;;;;;7.70;88.30;;;;;;5044646;28;19908;-68
2022/02/10 16:46:37;;;;;;;;;;;7.60;88.60;;;;;;5043578;28;19917;-69
2022/02/10 16:49:03;;;;;;;;;;;7.60;88.80;;;;;;5061938;28;19909;-69
2022/02/10 16:51:29;;;;;;;;;;;7.60;88.90;;;;;;5043947;28;19958;-69
2022/02/10 16:54:04;;;;;;;;;;;7.50;89.20;;;;;;5061776;28;19916;-69
2022/02/10 16:56:38;;;;;;;;;;;7.50;89.30;;;;;;5061750;28;19944;-69
2022/02/10 17:02:08;;;;;;;;;;;7.50;89.50;;;;;;5061574;28;19963;-69
2022/02/10 17:18:24;;;;;;;;;;;7.40;90.20;;;;;;4999810;28;19924;-69
2022/02/10 17:20:49;;;;;;;;;;;7.40;90.30;;;;;;5024060;28;19980;-69
2022/02/10 17:28:35;;;;;;;;;;;7.30;90.70;;;;;;5040911;28;19913;-68
2022/02/10 17:33:33;;;;;;;;;;;7.30;90.80;;;;;;5046151;28;19921;-68
2022/02/10 17:36:11;;;;;;;;;;;7.30;90.80;;;;;;5064739;28;19917;-68
2022/02/10 17:41:43;;;;;;;;;;;7.30;91.00;;;;;;5049707;28;19923;-67
2022/02/10 17:54:26;;;;;;;;;;;7.20;91.20;;;;;;5064833;28;19924;-68
2022/02/10 17:56:52;;;;;;;;;;;7.20;91.20;;;;;;5064683;28;19962;-68
2022/02/10 17:59:18;;;;;;;;;;;7.10;91.30;;;;;;5064527;28;20115;-68
2022/02/10 18:01:45;;;;;;;;;;;7.10;91.30;;;;;;5046767;28;19931;-68
2022/02/10 18:04:11;;;;;;;;;;;7.10;91.40;;;;;;5064423;28;19915;-69
2022/02/10 18:06:42;;;;;;;;;;;7.10;91.40;;;;;;5046678;28;20230;-70
2022/02/10 18:16:58;;;;;;;;;;;7.00;91.10;;;;;;5043519;28;19952;-68
2022/02/10 18:19:31;;;;;;;;;;;7.00;91.20;;;;;;5047100;28;19996;-68
2022/02/10 18:27:17;;;;;;;;;;;6.90;91.10;;;;;;5026539;28;19909;-67
2022/02/10 19:09:45;;;;;;;;;;;6.60;90.00;;;;;;5041363;28;20120;-71
2022/02/10 19:12:17;;;;;;;;;;;6.50;89.80;;;;;;5041330;28;19993;-73
2022/02/10 19:14:51;;;;;;;;;;;6.50;90.00;;;;;;5042148;28;19960;-71
2022/02/10 19:17:17;;;;;;;;;;;6.40;90.40;;;;;;5026446;28;19913;-71
2022/02/10 19:19:43;;;;;;;;;;;6.40;90.30;;;;;;5041772;28;19917;-71
2022/02/10 19:22:09;;;;;;;;;;;6.20;90.50;;;;;;5025008;28;20011;-72
2022/02/10 19:24:35;;;;;;;;;;;6.20;90.60;;;;;;5023387;28;19952;-68
2022/02/10 19:27:00;;;;;;;;;;;6.10;90.70;;;;;;5030247;28;19910;-69
2022/02/10 19:29:26;;;;;;;;;;;6.10;90.80;;;;;;5042929;28;19909;-70
2022/02/10 19:31:53;;;;;;;;;;;6.00;90.90;;;;;;5040971;28;19924;-69
2022/02/10 19:34:19;;;;;;;;;;;6.00;91.00;;;;;;5041148;28;20356;-70
2022/02/10 19:36:45;;;;;;;;;;;6.00;91.30;;;;;;5047682;28;19979;-70
2022/02/10 19:39:37;;;;;;;;;;;5.90;91.30;;;;;;5044457;28;20462;-73
2022/02/10 19:42:03;;;;;;;;;;;5.90;91.30;;;;;;5033997;28;20095;-73
2022/02/10 19:44:29;;;;;;;;;;;5.90;91.30;;;;;;5044792;28;19908;-72
2022/02/10 19:46:57;;;;;;;;;;;5.90;91.40;;;;;;5060719;28;19908;-72
2022/02/10 19:49:24;;;;;;;;;;;5.80;91.40;;;;;;5061173;28;19916;-72
2022/02/10 19:51:50;;;;;;;;;;;5.80;91.40;;;;;;5044254;28;19916;-73
2022/02/10 19:54:23;;;;;;;;;;;5.80;91.50;;;;;;5043048;28;20103;-72
2022/02/10 19:56:50;;;;;;;;;;;5.80;91.60;;;;;;5020295;28;19909;-72
2022/02/10 19:59:19;;;;;;;;;;;5.70;91.60;;;;;;5030921;28;20196;-67
2022/02/10 20:01:45;;;;;;;;;;;5.70;91.70;;;;;;5029779;28;20027;-67
2022/02/10 20:04:11;;;;;;;;;;;5.60;91.80;;;;;;5041892;28;20092;-68
2022/02/10 20:06:37;;;;;;;;;;;5.60;91.90;;;;;;5041777;28;19955;-67
2022/02/10 20:09:03;;;;;;;;;;;5.60;91.90;;;;;;5041945;28;20272;-67
2022/02/10 20:11:29;;;;;;;;;;;5.70;91.90;;;;;;5041633;28;19939;-68
2022/02/10 20:13:55;;;;;;;;;;;5.70;91.90;;;;;;5041872;28;19916;-67
2022/02/10 20:16:20;;;;;;;;;;;5.70;91.70;;;;;;5041060;28;19913;-67
2022/02/10 20:18:48;;;;;;;;;;;5.70;91.80;;;;;;5049689;28;19927;-67
2022/02/10 20:21:17;;;;;;;;;;;5.70;91.70;;;;;;5061539;28;19916;-67
2022/02/10 20:23:43;;;;;;;;;;;5.70;91.80;;;;;;5061463;28;19952;-66
2022/02/10 20:26:09;;;;;;;;;;;5.60;91.80;;;;;;5061507;28;20128;-66
2022/02/10 20:28:35;;;;;;;;;;;5.60;91.90;;;;;;5043642;28;20092;-67
2022/02/10 20:31:01;;;;;;;;;;;5.50;92.10;;;;;;5060917;28;19917;-67
2022/02/10 20:33:29;;;;;;;;;;;5.60;91.90;;;;;;5043552;28;19909;-67
2022/02/10 20:35:57;;;;;;;;;;;5.60;92.00;;;;;;5044342;28;19920;-68
2022/02/10 20:38:23;;;;;;;;;;;5.50;92.10;;;;;;5060115;28;19913;-67
2022/02/10 20:40:58;;;;;;;;;;;5.40;92.20;;;;;;5061596;28;20146;-68
2022/02/10 20:43:24;;;;;;;;;;;5.40;92.40;;;;;;5045475;28;19909;-67
2022/02/10 20:45:56;;;;;;;;;;;5.40;92.40;;;;;;5057212;28;19920;-68
2022/02/10 20:48:22;;;;;;;;;;;5.30;92.40;;;;;;5023570;28;20212;-67
2022/02/10 20:50:54;;;;;;;;;;;5.30;92.50;;;;;;5051156;28;20211;-68
2022/02/10 20:53:20;;;;;;;;;;;5.30;92.70;;;;;;5008766;28;19945;-68
2022/02/10 20:55:48;;;;;;;;;;;5.20;92.70;;;;;;5041460;28;19920;-68
2022/02/10 20:58:13;;;;;;;;;;;5.30;92.70;;;;;;5023973;28;19932;-68
2022/02/10 21:00:39;;;;;;;;;;;5.20;92.80;;;;;;5041362;28;20188;-68
2022/02/10 21:03:05;;;;;;;;;;;5.10;92.90;;;;;;5041711;28;19909;-68
2022/02/10 21:05:39;;;;;;;;;;;5.10;93.00;;;;;;5041188;28;19916;-68
2022/02/10 21:10:49;;;;;;;;;;;5.00;93.30;;;;;;5041382;28;20184;-68
2022/02/10 21:13:16;;;;;;;;;;;5.00;93.30;;;;;;5041711;28;19912;-68
2022/02/10 21:15:45;;;;;;;;;;;5.00;93.40;;;;;;5023212;28;19956;-68
2022/02/10 21:18:12;;;;;;;;;;;4.90;93.40;;;;;;5040797;28;20104;-67
2022/02/10 21:20:38;;;;;;;;;;;4.90;93.50;;;;;;5058382;28;20206;-68
2022/02/10 21:25:41;;;;;;;;;;;4.80;93.70;;;;;;5031661;28;20247;-68
2022/02/10 21:28:31;;;;;;;;;;;4.80;93.80;;;;;;5006544;28;20204;-69
2022/02/10 21:31:00;;;;;;;;;;;4.90;93.80;;;;;;5021335;28;19909;-68
2022/02/10 21:38:54;;;;;;;;;;;5.00;93.70;;;;;;4993530;28;20011;-67
2022/02/10 22:00:39;;;;;;;;;;;5.30;93.30;;;;;;5040646;28;19956;-68
2022/02/10 22:11:25;;;;;;;;;;;5.30;93.10;;;;;;5012152;28;20203;-68
2022/02/10 22:19:06;;;;;;;;;;;5.40;93.10;;;;;;5027251;28;19932;-69
2022/02/10 22:21:43;;;;;;;;;;;5.40;93.10;;;;;;5047957;28;19917;-69
2022/02/10 22:24:12;;;;;;;;;;;5.30;93.20;;;;;;5042223;28;20290;-68
2022/02/10 22:26:44;;;;;;;;;;;5.40;93.20;;;;;;5028340;28;20203;-68
2022/02/10 22:34:43;;;;;;;;;;;5.40;93.10;;;;;;5016996;28;20005;-70
2022/02/10 22:37:21;;;;;;;;;;;5.30;93.20;;;;;;4995595;28;20199;-68
2022/02/10 22:39:52;;;;;;;;;;;5.30;93.10;;;;;;5012420;28;20194;-70
2022/02/10 22:42:22;;;;;;;;;;;5.30;93.10;;;;;;5026529;28;19924;-70
2022/02/10 22:44:50;;;;;;;;;;;5.30;93.10;;;;;;5060404;28;19920;-68
2022/02/10 22:47:16;;;;;;;;;;;5.30;92.90;;;;;;5011358;28;19913;-70
2022/02/10 22:49:42;;;;;;;;;;;5.30;92.90;;;;;;5030463;28;19992;-68
2022/02/10 22:52:13;;;;;;;;;;;5.30;92.90;;;;;;5030800;28;19909;-70
2022/02/10 22:54:48;;;;;;;;;;;5.30;92.90;;;;;;5015172;28;19912;-67
2022/02/10 22:57:14;;;;;;;;;;;5.30;92.90;;;;;;5020367;28;20093;-67
2022/02/10 22:59:43;;;;;;;;;;;5.30;92.90;;;;;;5026471;28;19940;-67
2022/02/10 23:02:23;;;;;;;;;;;5.30;92.90;;;;;;5026343;28;19909;-67
2022/02/10 23:04:49;;;;;;;;;;;5.40;92.80;;;;;;5026205;28;20198;-66
2022/02/10 23:07:15;;;;;;;;;;;5.40;92.80;;;;;;5026358;28;19992;-67
2022/02/10 23:09:53;;;;;;;;;;;5.40;92.60;;;;;;5026953;28;19996;-69
2022/02/10 23:12:25;;;;;;;;;;;5.40;92.50;;;;;;5043572;28;19909;-67
2022/02/10 23:14:51;;;;;;;;;;;5.40;92.60;;;;;;5026445;28;19913;-67
2022/02/10 23:20:15;;;;;;;;;;;5.50;92.50;;;;;;5021316;28;20000;-68
2022/02/10 23:22:41;;;;;;;;;;;5.40;92.40;;;;;;5026509;28;20156;-66
2022/02/10 23:25:10;;;;;;;;;;;5.50;92.40;;;;;;5026164;28;19920;-68
2022/02/10 23:27:36;;;;;;;;;;;5.50;92.40;;;;;;5042388;28;19952;-67
2022/02/10 23:30:08;;;;;;;;;;;5.50;92.50;;;;;;5026243;28;19917;-67
2022/02/10 23:32:34;;;;;;;;;;;5.50;92.50;;;;;;5009591;28;19909;-67
2022/02/10 23:35:10;;;;;;;;;;;5.50;92.40;;;;;;5042124;28;19917;-68
2022/02/10 23:37:39;;;;;;;;;;;5.50;92.50;;;;;;5025977;28;19932;-68
2022/02/10 23:40:09;;;;;;;;;;;5.50;92.50;;;;;;5025632;28;20001;-67
2022/02/10 23:42:38;;;;;;;;;;;5.50;92.40;;;;;;5022452;28;20228;-67
2022/02/10 23:45:19;;;;;;;;;;;5.50;92.50;;;;;;5022429;28;19959;-68
2022/02/10 23:47:45;;;;;;;;;;;5.40;92.60;;;;;;5005921;28;20131;-68
2022/02/10 23:50:16;;;;;;;;;;;5.40;92.70;;;;;;4992610;28;19917;-67
2022/02/10 23:52:51;;;;;;;;;;;5.50;92.60;;;;;;5061759;28;19916;-65
2022/02/10 23:55:29;;;;;;;;;;;5.50;92.60;;;;;;5046668;28;19913;-66
